Time;durP1;ratioP1;P1;durP2;ratioP2;P2;SDS_P1;SDS_P2;PMS_P1;PMS_P2;Temp;Humidity;BMP_temperature;BMP_pressure;BME280_temperature;BME280_humidity;BME280_pressure;Samples;Min_cycle;Max_cycle;Signal;HPM_P1;HPM_P2
2023/09/23 00:02:22;;;;;;;25.75;21.38;;;15.20;99.90;;;;;;5019579;28;20109;-70
2023/09/23 00:04:48;;;;;;;32.75;24.05;;;15.20;99.90;;;;;;5023629;28;20041;-72
2023/09/23 00:07:14;;;;;;;30.92;23.13;;;15.20;99.90;;;;;;5023440;28;20378;-71
2023/09/23 00:09:39;;;;;;;24.52;20.17;;;15.10;99.90;;;;;;5021141;28;20187;-73
2023/09/23 00:12:06;;;;;;;27.60;19.90;;;15.00;99.90;;;;;;5023546;28;20606;-71
2023/09/23 00:14:32;;;;;;;25.83;20.35;;;15.00;99.90;;;;;;5017809;28;20042;-70
2023/09/23 00:16:58;;;;;;;25.42;19.17;;;14.90;99.90;;;;;;5022320;28;20025;-71
2023/09/23 00:19:25;;;;;;;24.75;16.88;;;14.90;99.90;;;;;;5021580;28;20049;-72
2023/09/23 00:21:51;;;;;;;21.75;17.23;;;14.90;99.90;;;;;;5016200;28;20072;-70
2023/09/23 00:24:17;;;;;;;24.02;17.23;;;14.90;99.90;;;;;;5019583;28;20034;-71
2023/09/23 00:26:43;;;;;;;18.02;15.60;;;14.90;99.90;;;;;;5028919;28;20076;-71
2023/09/23 00:29:10;;;;;;;19.15;15.52;;;14.90;99.90;;;;;;5021684;28;20030;-71
2023/09/23 00:31:36;;;;;;;19.42;14.32;;;14.90;99.90;;;;;;5025529;28;20039;-71
2023/09/23 00:34:02;;;;;;;17.90;13.07;;;14.80;99.90;;;;;;5022266;28;20113;-71
2023/09/23 00:36:28;;;;;;;25.92;14.82;;;14.70;99.90;;;;;;5021521;28;20040;-71
2023/09/23 00:38:56;;;;;;;19.92;12.57;;;14.70;99.90;;;;;;5024169;28;20100;-71
2023/09/23 00:41:21;;;;;;;15.70;12.43;;;14.70;99.90;;;;;;5024057;28;20132;-71
2023/09/23 00:43:47;;;;;;;20.25;12.50;;;14.70;99.90;;;;;;5016087;28;20038;-71
2023/09/23 00:46:18;;;;;;;17.98;12.35;;;14.70;99.90;;;;;;5022833;28;20394;-71
2023/09/23 00:48:44;;;;;;;18.70;12.95;;;14.70;99.90;;;;;;5017333;28;20095;-71
2023/09/23 00:51:11;;;;;;;18.10;12.50;;;14.70;99.90;;;;;;5030468;28;20558;-71
2023/09/23 00:53:40;;;;;;;19.25;11.90;;;14.60;99.90;;;;;;5019341;28;20025;-71
2023/09/23 00:56:08;;;;;;;24.35;10.43;;;14.70;99.90;;;;;;5022710;28;20053;-70
2023/09/23 00:58:36;;;;;;;18.52;11.18;;;14.60;99.90;;;;;;5016857;28;20033;-71
2023/09/23 01:01:05;;;;;;;13.98;10.32;;;14.60;99.90;;;;;;5020587;28;20025;-71
2023/09/23 01:03:31;;;;;;;14.98;10.30;;;14.60;99.90;;;;;;5031481;28;20029;-71
2023/09/23 01:06:16;;;;;;;17.65;8.98;;;14.60;99.90;;;;;;5026929;28;20431;-71
2023/09/23 01:08:45;;;;;;;13.55;9.05;;;14.60;99.90;;;;;;5023278;28;20026;-71
2023/09/23 01:11:11;;;;;;;19.65;9.70;;;14.50;99.90;;;;;;5028127;28;20105;-72
2023/09/23 01:13:37;;;;;;;13.70;8.52;;;14.40;99.90;;;;;;5022578;28;20026;-71
2023/09/23 01:16:12;;;;;;;14.27;8.68;;;14.50;99.90;;;;;;5025427;28;20588;-70
2023/09/23 01:18:38;;;;;;;14.55;7.97;;;14.40;99.90;;;;;;5028333;28;20022;-71
2023/09/23 01:21:07;;;;;;;15.13;8.35;;;14.40;99.90;;;;;;5027740;28;20478;-71
2023/09/23 01:23:36;;;;;;;16.83;8.15;;;14.40;99.90;;;;;;5025589;28;20112;-71
2023/09/23 01:26:04;;;;;;;11.02;7.80;;;14.40;99.90;;;;;;5021436;28;20024;-72
2023/09/23 01:28:32;;;;;;;11.80;7.43;;;14.40;99.90;;;;;;5028909;28;20080;-71
2023/09/23 01:30:59;;;;;;;12.48;6.97;;;14.40;99.90;;;;;;5026773;28;20060;-71
2023/09/23 01:33:26;;;;;;;15.75;7.32;;;14.40;99.90;;;;;;5021354;28;20037;-71
2023/09/23 01:35:55;;;;;;;9.00;7.05;;;14.30;99.90;;;;;;5028542;28;20500;-71
2023/09/23 01:38:22;;;;;;;13.23;6.07;;;14.30;99.90;;;;;;5022553;28;20034;-71
2023/09/23 01:40:47;;;;;;;9.05;6.25;;;14.30;99.90;;;;;;5026268;28;20037;-71
2023/09/23 01:43:13;;;;;;;15.65;6.07;;;14.20;99.90;;;;;;5029688;28;20029;-71
2023/09/23 01:45:39;;;;;;;17.08;5.85;;;14.20;99.90;;;;;;5023189;28;20022;-71
2023/09/23 01:48:05;;;;;;;12.48;5.32;;;14.20;99.90;;;;;;5025561;28;20029;-70
2023/09/23 01:50:31;;;;;;;12.77;5.13;;;14.20;99.90;;;;;;5019964;28;20367;-71
2023/09/23 01:53:00;;;;;;;12.95;5.22;;;14.10;99.90;;;;;;5021398;28;20492;-70
2023/09/23 01:55:26;;;;;;;10.95;4.93;;;14.10;99.90;;;;;;5033991;28;20017;-71
2023/09/23 01:57:52;;;;;;;13.23;4.97;;;14.10;99.90;;;;;;5028351;28;20034;-71
2023/09/23 02:00:18;;;;;;;9.88;5.10;;;14.10;99.90;;;;;;5021411;28;20482;-71
2023/09/23 02:02:48;;;;;;;9.23;4.82;;;14.00;99.90;;;;;;5028676;28;20108;-70
2023/09/23 02:05:15;;;;;;;7.05;4.32;;;14.00;99.90;;;;;;5027996;28;20467;-71
2023/09/23 02:07:41;;;;;;;9.23;4.45;;;14.10;99.90;;;;;;5022763;28;20034;-71
2023/09/23 02:10:09;;;;;;;5.75;4.28;;;14.00;99.90;;;;;;5031106;28;20037;-72
2023/09/23 02:12:35;;;;;;;10.82;4.70;;;14.00;99.90;;;;;;5025132;28;20446;-71
2023/09/23 02:15:01;;;;;;;11.10;3.95;;;14.00;99.90;;;;;;5020401;28;20025;-71
2023/09/23 02:17:27;;;;;;;12.65;3.20;;;14.00;99.90;;;;;;5025364;28;20040;-71
2023/09/23 02:19:53;;;;;;;5.97;3.85;;;14.10;99.90;;;;;;5033525;28;20025;-71
2023/09/23 02:22:19;;;;;;;8.57;3.72;;;14.00;99.90;;;;;;5024769;28;20026;-72
2023/09/23 02:24:46;;;;;;;8.88;4.00;;;14.00;99.90;;;;;;5020958;28;20029;-71
2023/09/23 02:27:12;;;;;;;8.05;3.72;;;14.00;99.90;;;;;;5023715;28;20021;-71
2023/09/23 02:29:40;;;;;;;8.90;3.58;;;14.00;99.90;;;;;;5023403;28;20046;-72
2023/09/23 02:32:06;;;;;;;13.90;4.03;;;13.90;99.90;;;;;;5024611;28;20112;-71
2023/09/23 02:34:32;;;;;;;7.47;3.30;;;13.90;99.90;;;;;;5025126;28;20095;-72
2023/09/23 02:36:58;;;;;;;5.80;3.40;;;13.90;99.90;;;;;;5018066;28;20063;-71
2023/09/23 02:39:23;;;;;;;6.95;3.35;;;13.90;99.90;;;;;;5023490;28;20059;-71
2023/09/23 02:41:50;;;;;;;10.20;3.47;;;14.00;99.90;;;;;;5025331;28;20492;-71
2023/09/23 02:44:23;;;;;;;7.80;3.42;;;13.90;99.90;;;;;;5021769;28;20413;-71
2023/09/23 02:46:49;;;;;;;6.45;3.55;;;13.80;99.90;;;;;;5027464;28;20025;-71
2023/09/23 02:49:15;;;;;;;11.30;3.53;;;13.80;99.90;;;;;;5030372;28;20068;-71
2023/09/23 02:51:42;;;;;;;7.93;3.45;;;13.80;99.90;;;;;;5026682;28;20030;-72
2023/09/23 02:54:09;;;;;;;7.65;3.10;;;13.80;99.90;;;;;;5024121;28;20234;-72
2023/09/23 02:56:35;;;;;;;7.90;3.10;;;13.80;99.90;;;;;;5019471;28;20026;-71
2023/09/23 02:59:11;;;;;;;4.60;3.10;;;13.80;99.90;;;;;;5019452;28;20395;-71
2023/09/23 03:01:39;;;;;;;8.32;3.38;;;13.80;99.90;;;;;;5028578;28;20518;-72
2023/09/23 03:04:16;;;;;;;5.55;3.13;;;13.80;99.90;;;;;;5021090;28;20034;-71
2023/09/23 03:06:49;;;;;;;8.10;3.28;;;13.70;99.90;;;;;;5023923;28;20032;-71
2023/09/23 03:09:25;;;;;;;14.63;3.00;;;13.80;99.90;;;;;;5027366;28;20127;-71
2023/09/23 03:11:55;;;;;;;6.32;2.97;;;13.70;99.90;;;;;;5022403;28;20108;-70
2023/09/23 03:14:42;;;;;;;7.45;3.40;;;13.80;99.90;;;;;;5023653;28;20025;-72
2023/09/23 03:17:09;;;;;;;11.02;3.58;;;13.80;99.90;;;;;;5027926;28;20030;-71
2023/09/23 03:19:36;;;;;;;7.22;3.10;;;13.70;99.90;;;;;;5019593;28;20387;-72
2023/09/23 03:22:02;;;;;;;4.97;3.00;;;13.70;99.90;;;;;;5020026;28;20022;-72
2023/09/23 03:24:29;;;;;;;8.70;3.00;;;13.70;99.90;;;;;;5025796;28;20131;-71
2023/09/23 03:26:58;;;;;;;9.70;3.58;;;13.70;99.90;;;;;;5019718;28;20120;-72
2023/09/23 03:29:29;;;;;;;9.80;3.40;;;13.60;99.90;;;;;;5021925;28;20091;-72
2023/09/23 03:31:58;;;;;;;5.63;2.60;;;13.70;99.90;;;;;;5028878;28;20045;-73
2023/09/23 03:34:26;;;;;;;11.38;3.47;;;13.50;99.90;;;;;;5026639;28;20466;-71
2023/09/23 03:36:53;;;;;;;6.97;2.83;;;13.50;99.90;;;;;;5023718;28;20026;-72
2023/09/23 03:39:19;;;;;;;10.13;3.15;;;13.60;99.90;;;;;;5022914;28;20041;-72
2023/09/23 03:41:46;;;;;;;8.95;3.85;;;13.50;99.90;;;;;;5024936;28;20064;-72
2023/09/23 03:44:16;;;;;;;7.45;3.03;;;13.50;99.90;;;;;;5022299;28;20049;-72
2023/09/23 03:46:50;;;;;;;6.95;2.92;;;13.60;99.90;;;;;;5023432;28;20453;-72
2023/09/23 03:49:15;;;;;;;7.15;2.70;;;13.60;99.90;;;;;;5022772;28;20057;-73
2023/09/23 03:51:41;;;;;;;8.48;2.90;;;13.60;99.90;;;;;;5023670;28;20555;-72
2023/09/23 03:54:07;;;;;;;8.68;3.33;;;13.50;99.90;;;;;;5023289;28;20489;-72
2023/09/23 03:56:33;;;;;;;4.43;2.75;;;13.60;99.90;;;;;;5021357;28;20076;-73
2023/09/23 03:59:05;;;;;;;9.48;3.33;;;13.60;99.90;;;;;;5028348;28;20029;-72
2023/09/23 04:01:32;;;;;;;7.60;2.97;;;13.60;99.90;;;;;;5022474;28;20060;-72
2023/09/23 04:03:58;;;;;;;5.95;3.22;;;13.60;99.90;;;;;;5022076;28;20045;-72
2023/09/23 04:06:23;;;;;;;12.02;3.70;;;13.60;99.90;;;;;;5018214;28;20131;-71
2023/09/23 04:08:49;;;;;;;11.25;3.72;;;13.60;99.90;;;;;;5020085;28;20022;-72
2023/09/23 04:11:15;;;;;;;12.77;3.35;;;13.50;99.90;;;;;;5017548;28;20104;-71
2023/09/23 04:13:44;;;;;;;6.53;2.80;;;13.60;99.90;;;;;;5020856;28;20394;-72
2023/09/23 04:16:11;;;;;;;7.45;3.53;;;13.50;99.90;;;;;;5021439;28;20056;-71
2023/09/23 04:18:37;;;;;;;6.78;3.85;;;13.60;99.90;;;;;;5023164;28;20478;-71
2023/09/23 04:21:03;;;;;;;9.75;3.42;;;13.60;99.90;;;;;;5019323;28;20022;-72
2023/09/23 04:23:29;;;;;;;6.28;3.38;;;13.50;99.90;;;;;;5031959;28;20043;-71
2023/09/23 04:25:55;;;;;;;8.05;3.35;;;13.60;99.90;;;;;;5029005;28;20013;-71
2023/09/23 04:28:21;;;;;;;9.07;3.47;;;13.60;99.90;;;;;;5021696;28;20500;-71
2023/09/23 04:30:46;;;;;;;7.93;3.58;;;13.50;99.90;;;;;;5022311;28;20505;-72
2023/09/23 04:33:12;;;;;;;11.85;3.63;;;13.50;99.90;;;;;;5021113;28;20513;-72
2023/09/23 04:35:38;;;;;;;10.98;3.90;;;13.50;99.90;;;;;;5022187;28;20038;-73
2023/09/23 04:38:05;;;;;;;14.98;4.15;;;13.40;99.90;;;;;;5033593;28;20029;-71
2023/09/23 04:40:30;;;;;;;11.98;4.50;;;13.50;99.90;;;;;;5027011;28;20018;-72
2023/09/23 04:42:56;;;;;;;11.43;3.85;;;13.50;99.90;;;;;;5019397;28;20037;-71
2023/09/23 04:45:23;;;;;;;11.85;3.72;;;13.50;99.90;;;;;;5025640;28;20025;-71
2023/09/23 04:47:52;;;;;;;11.05;3.53;;;13.40;99.90;;;;;;5023344;28;20132;-71
2023/09/23 04:50:18;;;;;;;6.18;3.08;;;13.50;99.90;;;;;;5023491;28;20038;-73
2023/09/23 04:52:46;;;;;;;9.23;3.58;;;13.50;99.90;;;;;;5028667;28;20055;-72
2023/09/23 04:55:12;;;;;;;8.13;3.40;;;13.50;99.90;;;;;;5026169;28;20421;-71
2023/09/23 04:57:38;;;;;;;7.60;3.40;;;13.50;99.90;;;;;;5023652;28;20370;-72
2023/09/23 05:00:04;;;;;;;10.63;3.75;;;13.50;99.90;;;;;;5026255;28;20109;-72
2023/09/23 05:02:31;;;;;;;7.20;3.50;;;13.40;99.90;;;;;;5025720;28;20049;-71
2023/09/23 05:04:57;;;;;;;6.22;3.67;;;13.40;99.90;;;;;;5031365;28;20040;-72
2023/09/23 05:07:26;;;;;;;11.38;4.13;;;13.40;99.90;;;;;;5023848;28;20029;-71
2023/09/23 05:09:55;;;;;;;8.98;3.40;;;13.30;99.90;;;;;;5024176;28;20029;-72
2023/09/23 05:12:21;;;;;;;8.48;3.65;;;13.30;99.90;;;;;;5026060;28;20050;-72
2023/09/23 05:14:47;;;;;;;10.13;4.20;;;13.30;99.90;;;;;;5024401;28;20075;-73
2023/09/23 05:17:15;;;;;;;9.25;4.13;;;13.20;99.90;;;;;;5031003;28;20033;-71
2023/09/23 05:19:42;;;;;;;11.43;4.00;;;13.30;99.90;;;;;;5025180;28;20029;-73
2023/09/23 05:22:10;;;;;;;7.35;4.00;;;13.30;99.90;;;;;;5027753;28;20030;-71
2023/09/23 05:24:36;;;;;;;6.78;3.65;;;13.30;99.90;;;;;;5024022;28;20026;-67
2023/09/23 05:27:03;;;;;;;9.43;4.05;;;13.20;99.90;;;;;;5030288;28;20013;-72
2023/09/23 05:29:29;;;;;;;8.75;4.13;;;13.20;99.90;;;;;;5025896;28;20038;-71
2023/09/23 05:31:54;;;;;;;15.93;4.13;;;13.30;99.90;;;;;;5031236;28;20053;-71
2023/09/23 05:34:20;;;;;;;8.63;4.00;;;13.20;99.90;;;;;;5025539;28;20367;-71
2023/09/23 05:36:46;;;;;;;7.72;3.75;;;13.30;99.90;;;;;;5028502;28;20017;-71
2023/09/23 05:39:19;;;;;;;5.63;3.85;;;13.30;99.90;;;;;;5023158;28;20053;-71
2023/09/23 05:41:49;;;;;;;9.85;3.58;;;13.30;99.90;;;;;;5023962;28;20029;-71
2023/09/23 05:44:18;;;;;;;12.00;3.95;;;13.30;99.90;;;;;;5029154;28;20030;-71
2023/09/23 05:46:45;;;;;;;11.20;4.05;;;13.30;99.90;;;;;;5029401;28;20048;-72
2023/09/23 05:49:12;;;;;;;12.32;4.18;;;13.30;99.90;;;;;;5023022;28;20022;-72
2023/09/23 05:51:38;;;;;;;9.27;3.72;;;13.30;99.90;;;;;;5026150;28;20036;-72
2023/09/23 05:54:04;;;;;;;11.00;4.18;;;13.30;99.90;;;;;;5024611;28;20018;-71
2023/09/23 05:56:30;;;;;;;8.23;3.92;;;13.20;99.90;;;;;;5023659;28;20080;-71
2023/09/23 05:58:55;;;;;;;7.55;3.63;;;13.30;99.90;;;;;;5028171;28;20604;-71
2023/09/23 06:01:21;;;;;;;10.38;4.60;;;13.20;99.90;;;;;;5026888;28;20026;-71
2023/09/23 06:03:48;;;;;;;12.30;3.85;;;13.20;99.90;;;;;;5026320;28;20395;-71
2023/09/23 06:06:14;;;;;;;14.13;4.68;;;13.20;99.90;;;;;;5026895;28;20021;-71
2023/09/23 06:08:40;;;;;;;6.65;3.65;;;13.20;99.90;;;;;;5026426;28;20032;-71
2023/09/23 06:11:05;;;;;;;11.02;4.20;;;13.10;99.90;;;;;;5027340;28;20128;-71
2023/09/23 06:13:32;;;;;;;15.77;4.47;;;13.20;99.90;;;;;;5024553;28;20022;-71
2023/09/23 06:16:02;;;;;;;10.38;4.40;;;13.20;99.90;;;;;;5032093;28;20033;-71
2023/09/23 06:18:28;;;;;;;11.25;4.45;;;13.20;99.90;;;;;;5024484;28;20386;-71
2023/09/23 06:20:58;;;;;;;10.75;4.10;;;13.20;99.90;;;;;;5027207;28;20026;-75
2023/09/23 06:23:24;;;;;;;9.50;4.50;;;13.20;99.90;;;;;;5020912;28;20021;-70
2023/09/23 06:25:59;;;;;;;10.48;4.70;;;13.20;99.90;;;;;;5020982;28;20040;-71
2023/09/23 06:28:25;;;;;;;11.25;3.95;;;13.30;99.90;;;;;;5021409;28;20029;-71
2023/09/23 06:30:52;;;;;;;6.65;4.00;;;13.30;99.90;;;;;;5029806;28;20047;-71
2023/09/23 06:33:18;;;;;;;11.90;4.28;;;13.20;99.90;;;;;;5033072;28;20025;-71
2023/09/23 06:36:00;;;;;;;11.77;5.05;;;13.20;99.90;;;;;;5021920;28;20066;-72
2023/09/23 06:38:26;;;;;;;11.07;3.93;;;13.30;99.90;;;;;;5025311;28;20044;-71
2023/09/23 06:40:55;;;;;;;11.40;4.25;;;13.30;99.90;;;;;;5023277;28;20292;-71
2023/09/23 06:43:21;;;;;;;10.10;4.63;;;13.30;99.90;;;;;;5023232;28;20075;-71
2023/09/23 06:45:57;;;;;;;9.68;4.63;;;13.40;99.90;;;;;;5022422;28;20017;-71
2023/09/23 06:48:24;;;;;;;10.60;4.30;;;13.20;99.90;;;;;;5029415;28;20025;-71
2023/09/23 06:50:57;;;;;;;12.05;5.05;;;13.20;99.90;;;;;;5029212;28;20083;-71
2023/09/23 06:53:23;;;;;;;9.50;4.57;;;13.20;99.90;;;;;;5018845;28;20030;-70
2023/09/23 06:55:49;;;;;;;9.25;4.60;;;13.30;99.90;;;;;;5023266;28;20034;-68
2023/09/23 06:58:15;;;;;;;5.10;3.75;;;13.30;99.90;;;;;;5031577;28;20593;-71
2023/09/23 07:00:40;;;;;;;11.30;4.93;;;13.40;99.90;;;;;;5026666;28;20436;-71
2023/09/23 07:03:06;;;;;;;12.35;5.15;;;13.40;99.90;;;;;;5026863;28;22224;-68
2023/09/23 07:05:34;;;;;;;11.88;4.60;;;13.40;99.90;;;;;;5025344;28;20026;-68
2023/09/23 07:08:01;;;;;;;12.57;5.22;;;13.40;99.90;;;;;;5027556;28;20029;-70
2023/09/23 07:10:27;;;;;;;11.00;4.75;;;13.40;99.90;;;;;;5021081;28;20033;-69
2023/09/23 07:12:53;;;;;;;8.63;4.50;;;13.60;99.90;;;;;;5027813;28;20026;-69
2023/09/23 07:15:19;;;;;;;8.85;4.57;;;13.50;99.90;;;;;;5021155;28;20371;-71
2023/09/23 07:17:44;;;;;;;14.00;4.95;;;13.60;99.90;;;;;;5023970;28;20028;-68
2023/09/23 07:20:11;;;;;;;14.57;5.53;;;13.60;99.90;;;;;;5027363;28;20522;-68
2023/09/23 07:22:36;;;;;;;12.65;5.18;;;13.60;99.90;;;;;;5024594;28;20073;-73
2023/09/23 07:25:04;;;;;;;11.85;5.38;;;13.60;99.90;;;;;;5017888;28;20038;-70
2023/09/23 07:27:30;;;;;;;12.82;5.45;;;13.60;99.90;;;;;;5036815;28;20104;-75
2023/09/23 07:29:56;;;;;;;12.85;4.93;;;13.60;99.90;;;;;;5021311;28;20733;-69
2023/09/23 07:32:22;;;;;;;11.95;6.00;;;13.70;99.90;;;;;;5026032;28;20105;-70
2023/09/23 07:34:47;;;;;;;14.77;5.70;;;13.70;99.90;;;;;;5017302;28;20061;-71
2023/09/23 07:37:13;;;;;;;18.10;6.30;;;13.80;99.90;;;;;;5021078;28;20025;-71
2023/09/23 07:39:40;;;;;;;15.93;5.90;;;13.90;99.90;;;;;;5023048;28;20424;-70
2023/09/23 07:42:06;;;;;;;13.55;6.13;;;13.90;99.90;;;;;;5025016;28;20528;-70
2023/09/23 07:44:32;;;;;;;14.55;5.82;;;14.00;99.90;;;;;;5018882;28;20084;-69
2023/09/23 07:46:57;;;;;;;12.20;6.10;;;14.00;99.90;;;;;;5018544;28;20025;-70
2023/09/23 07:49:23;;;;;;;17.30;6.35;;;13.90;99.90;;;;;;5020006;28;20045;-71
2023/09/23 07:51:49;;;;;;;16.80;6.30;;;14.00;99.90;;;;;;5024983;28;20033;-70
2023/09/23 07:54:15;;;;;;;9.95;5.72;;;14.00;99.90;;;;;;5026710;28;20105;-70
2023/09/23 07:56:40;;;;;;;13.70;5.90;;;14.10;99.90;;;;;;5023468;28;20144;-70
2023/09/23 07:59:06;;;;;;;16.90;5.43;;;14.10;99.90;;;;;;5019827;28;20030;-72
2023/09/23 08:01:32;;;;;;;11.07;5.82;;;14.20;99.90;;;;;;5023510;28;20033;-71
2023/09/23 08:03:57;;;;;;;13.30;6.13;;;14.20;99.90;;;;;;5024598;28;20485;-68
2023/09/23 08:06:23;;;;;;;15.40;6.55;;;14.30;99.90;;;;;;5022345;28;20108;-70
2023/09/23 08:08:52;;;;;;;17.58;6.20;;;14.40;99.90;;;;;;5021490;28;20050;-72
2023/09/23 08:11:17;;;;;;;12.82;5.80;;;14.50;99.90;;;;;;5025687;28;20042;-71
2023/09/23 08:13:43;;;;;;;14.65;6.32;;;14.50;99.90;;;;;;5027566;28;20529;-72
2023/09/23 08:16:09;;;;;;;13.70;6.07;;;14.60;99.90;;;;;;5018456;28;20437;-73
2023/09/23 08:18:35;;;;;;;15.18;6.13;;;14.70;99.90;;;;;;5021953;28;20092;-70
2023/09/23 08:21:01;;;;;;;11.85;5.43;;;14.70;99.90;;;;;;5021081;28;20116;-71
2023/09/23 08:23:27;;;;;;;13.27;5.40;;;14.60;99.90;;;;;;5029202;28;20029;-71
2023/09/23 08:25:54;;;;;;;14.85;6.25;;;14.60;99.90;;;;;;5016429;28;20026;-70
2023/09/23 08:28:19;;;;;;;12.95;5.80;;;14.70;99.90;;;;;;5024511;28;20065;-71
2023/09/23 08:30:47;;;;;;;14.05;5.50;;;14.80;99.90;;;;;;5025915;28;20616;-71
2023/09/23 08:33:14;;;;;;;9.98;5.65;;;14.80;99.90;;;;;;5023819;28;20118;-71
2023/09/23 08:35:41;;;;;;;7.57;4.97;;;14.90;99.90;;;;;;5022189;28;20418;-71
2023/09/23 08:38:07;;;;;;;9.35;4.38;;;14.90;99.90;;;;;;5023521;28;20107;-72
2023/09/23 08:40:34;;;;;;;13.70;5.40;;;15.00;99.90;;;;;;5019515;28;20076;-72
2023/09/23 08:43:05;;;;;;;10.55;5.28;;;15.10;99.90;;;;;;5019005;28;20014;-71
2023/09/23 08:45:32;;;;;;;11.32;4.25;;;15.10;99.90;;;;;;5023831;28;20040;-71
2023/09/23 08:47:58;;;;;;;10.02;4.20;;;15.30;99.90;;;;;;5021127;28;20117;-71
2023/09/23 08:50:25;;;;;;;11.20;4.18;;;15.30;99.90;;;;;;5023620;28;20041;-71
2023/09/23 08:52:55;;;;;;;16.35;4.53;;;15.40;99.90;;;;;;5019189;28;20021;-70
2023/09/23 08:55:22;;;;;;;14.50;4.70;;;15.50;99.90;;;;;;5021823;28;20030;-71
2023/09/23 08:57:48;;;;;;;13.43;4.32;;;15.60;99.90;;;;;;5018812;28;20048;-71
2023/09/23 09:00:17;;;;;;;12.35;4.13;;;15.60;99.90;;;;;;5024005;28;20065;-70
2023/09/23 09:02:43;;;;;;;12.73;4.60;;;15.60;99.90;;;;;;5026957;28;20062;-70
2023/09/23 09:05:09;;;;;;;7.07;4.22;;;15.60;99.90;;;;;;5018010;28;20064;-71
2023/09/23 09:07:36;;;;;;;12.60;4.07;;;15.60;99.90;;;;;;5020427;28;20032;-70
2023/09/23 09:10:02;;;;;;;11.65;5.05;;;15.70;99.90;;;;;;5024486;28;20046;-70
2023/09/23 09:12:30;;;;;;;12.30;3.70;;;15.80;99.90;;;;;;5023626;28;20638;-71
2023/09/23 09:14:55;;;;;;;7.35;3.97;;;15.80;99.90;;;;;;5024120;28;20065;-70
2023/09/23 09:17:21;;;;;;;7.72;4.80;;;15.90;99.90;;;;;;5025770;28;20026;-70
2023/09/23 09:19:49;;;;;;;5.97;3.13;;;16.00;99.90;;;;;;5024730;28;20022;-72
2023/09/23 09:22:15;;;;;;;9.45;3.63;;;16.00;99.90;;;;;;5024186;28;20114;-69
2023/09/23 09:24:40;;;;;;;6.90;3.63;;;16.20;99.90;;;;;;5023516;28;20116;-71
2023/09/23 09:27:15;;;;;;;5.70;3.22;;;16.30;99.90;;;;;;5022819;28;20424;-69
2023/09/23 09:29:43;;;;;;;9.52;3.13;;;16.40;99.90;;;;;;5016631;28;20025;-69
2023/09/23 09:32:10;;;;;;;8.27;3.47;;;16.60;99.90;;;;;;5024128;28;20052;-69
2023/09/23 09:34:46;;;;;;;11.73;3.60;;;16.70;99.90;;;;;;5025791;28;20036;-69
2023/09/23 09:37:15;;;;;;;9.07;3.03;;;16.70;99.90;;;;;;5025672;28;20455;-69
2023/09/23 09:39:53;;;;;;;7.28;3.08;;;16.90;99.90;;;;;;5023379;28;20050;-69
2023/09/23 09:42:28;;;;;;;7.10;2.40;;;17.00;99.90;;;;;;5023745;28;20104;-72
2023/09/23 09:44:56;;;;;;;4.40;1.90;;;17.00;99.90;;;;;;5039158;28;20112;-70
2023/09/23 09:47:22;;;;;;;9.27;2.92;;;17.00;99.90;;;;;;5034346;28;20029;-71
2023/09/23 09:49:54;;;;;;;7.97;2.42;;;17.10;99.90;;;;;;5030213;28;20044;-69
2023/09/23 09:52:26;;;;;;;6.53;3.03;;;17.10;99.90;;;;;;5022353;28;20030;-70
2023/09/23 09:54:58;;;;;;;4.97;2.35;;;17.20;99.90;;;;;;5024468;28;20030;-70
2023/09/23 09:57:29;;;;;;;5.35;2.03;;;17.00;99.90;;;;;;5026483;28;20033;-70
2023/09/23 09:59:59;;;;;;;8.65;2.20;;;17.00;99.90;;;;;;5029097;28;20032;-72
2023/09/23 10:02:25;;;;;;;6.80;2.00;;;16.90;99.90;;;;;;5022020;28;20502;-69
2023/09/23 10:04:51;;;;;;;5.45;2.08;;;16.90;99.90;;;;;;5026659;28;20056;-73
2023/09/23 10:07:17;;;;;;;6.28;2.40;;;16.80;99.90;;;;;;5028273;28;20120;-72
2023/09/23 10:09:58;;;;;;;4.80;2.50;;;16.90;99.90;;;;;;5024503;28;20029;-73
2023/09/23 10:12:31;;;;;;;5.60;2.08;;;16.90;99.90;;;;;;5027464;28;20429;-71
2023/09/23 10:14:58;;;;;;;9.23;2.22;;;16.90;99.90;;;;;;5022018;28;20026;-70
2023/09/23 10:17:31;;;;;;;6.43;2.90;;;16.90;99.90;;;;;;5019576;28;20052;-74
2023/09/23 10:19:58;;;;;;;7.10;2.47;;;16.90;99.90;;;;;;5019196;28;20079;-72
2023/09/23 10:22:27;;;;;;;6.53;2.50;;;16.80;99.90;;;;;;5028077;28;20630;-70
2023/09/23 10:24:59;;;;;;;9.05;2.55;;;16.90;99.90;;;;;;5028408;28;20043;-68
2023/09/23 10:27:25;;;;;;;6.95;2.60;;;17.00;99.90;;;;;;5022282;28;20036;-73
2023/09/23 10:29:51;;;;;;;8.73;2.92;;;16.90;99.90;;;;;;5025056;28;20122;-73
2023/09/23 10:32:17;;;;;;;6.50;2.30;;;16.90;99.90;;;;;;5022444;28;20443;-75
2023/09/23 10:34:52;;;;;;;9.23;2.42;;;16.80;99.90;;;;;;5021823;28;20520;-73
2023/09/23 10:37:27;;;;;;;6.97;2.10;;;16.90;99.90;;;;;;5022307;28;20487;-74
2023/09/23 10:39:53;;;;;;;8.32;2.63;;;16.90;99.90;;;;;;5025309;28;20025;-69
2023/09/23 10:42:19;;;;;;;5.80;2.35;;;17.10;99.90;;;;;;5022971;28;20084;-71
2023/09/23 10:44:48;;;;;;;12.18;2.60;;;16.90;99.90;;;;;;5022700;28;20041;-71
2023/09/23 10:47:14;;;;;;;7.72;2.47;;;17.10;99.90;;;;;;5022983;28;20026;-69
2023/09/23 10:49:40;;;;;;;7.95;2.20;;;17.30;99.90;;;;;;5022464;28;20025;-70
2023/09/23 10:52:06;;;;;;;10.82;2.55;;;17.40;99.90;;;;;;5027658;28;20034;-71
2023/09/23 10:54:32;;;;;;;8.63;2.20;;;17.50;99.90;;;;;;5027182;28;20409;-71
2023/09/23 10:57:00;;;;;;;5.38;2.25;;;17.70;99.90;;;;;;5031774;28;20044;-74
2023/09/23 10:59:26;;;;;;;7.38;2.00;;;17.60;99.90;;;;;;5018233;28;20026;-73
2023/09/23 11:01:55;;;;;;;6.30;2.20;;;17.70;99.90;;;;;;5024661;28;20033;-69
2023/09/23 11:04:23;;;;;;;5.65;2.55;;;17.60;99.90;;;;;;5027530;28;20509;-73
2023/09/23 11:06:49;;;;;;;9.77;2.78;;;17.50;99.90;;;;;;5035257;28;20084;-73
2023/09/23 11:09:14;;;;;;;5.70;2.38;;;17.50;99.90;;;;;;5042634;28;20041;-69
2023/09/23 11:11:41;;;;;;;7.78;2.17;;;17.80;99.90;;;;;;5022621;28;20038;-69
2023/09/23 11:14:13;;;;;;;7.60;2.30;;;17.90;99.90;;;;;;5026810;28;20025;-68
2023/09/23 11:16:42;;;;;;;6.43;2.30;;;17.90;99.90;;;;;;5025182;28;20039;-70
2023/09/23 11:19:08;;;;;;;4.70;1.90;;;18.00;99.90;;;;;;5023925;28;20057;-69
2023/09/23 11:21:46;;;;;;;7.80;2.63;;;18.20;99.90;;;;;;5028940;28;20067;-69
2023/09/23 11:24:13;;;;;;;3.10;1.42;;;18.20;99.90;;;;;;5026134;28;20120;-69
2023/09/23 11:26:40;;;;;;;4.10;2.05;;;18.20;99.90;;;;;;5018958;28;20104;-72
2023/09/23 11:29:09;;;;;;;6.13;1.92;;;18.20;99.90;;;;;;5022436;28;20502;-68
2023/09/23 11:31:35;;;;;;;6.10;1.90;;;18.30;99.90;;;;;;5026841;28;20053;-69
2023/09/23 11:34:01;;;;;;;8.70;2.30;;;18.40;99.90;;;;;;5018493;28;20018;-69
2023/09/23 11:36:28;;;;;;;4.65;1.80;;;18.50;99.90;;;;;;5019776;28;20382;-70
2023/09/23 11:38:53;;;;;;;3.42;2.08;;;18.70;99.90;;;;;;5018732;28;20149;-69
2023/09/23 11:41:19;;;;;;;6.22;2.13;;;18.70;99.90;;;;;;5027966;28;20033;-75
2023/09/23 11:43:49;;;;;;;4.97;1.70;;;18.60;99.90;;;;;;5019052;28;20080;-70
2023/09/23 11:46:19;;;;;;;6.40;1.70;;;18.60;99.90;;;;;;5018818;28;20364;-70
2023/09/23 11:48:48;;;;;;;10.43;2.00;;;18.60;99.90;;;;;;5032496;28;20051;-73
2023/09/23 11:51:15;;;;;;;4.50;1.60;;;18.70;99.90;;;;;;5027017;28;20074;-70
2023/09/23 11:53:41;;;;;;;7.03;2.08;;;18.80;99.90;;;;;;5026069;28;20049;-74
2023/09/23 11:56:07;;;;;;;6.72;1.80;;;19.00;99.90;;;;;;5021534;28;20068;-72
2023/09/23 11:58:32;;;;;;;4.53;1.65;;;19.20;99.90;;;;;;5016871;28;20970;-71
2023/09/23 12:01:01;;;;;;;4.47;1.60;;;19.40;99.90;;;;;;5018999;28;20609;-70
2023/09/23 12:03:27;;;;;;;5.15;1.75;;;19.30;99.90;;;;;;5028868;28;20021;-70
2023/09/23 12:05:53;;;;;;;4.00;1.85;;;19.30;99.90;;;;;;5021488;28;20021;-70
2023/09/23 12:08:19;;;;;;;8.07;2.03;;;19.30;99.90;;;;;;5022758;28;20478;-70
2023/09/23 12:10:44;;;;;;;4.38;1.65;;;19.30;99.90;;;;;;5032006;28;20154;-75
2023/09/23 12:13:10;;;;;;;5.40;2.08;;;19.20;99.90;;;;;;5019793;28;20482;-73
2023/09/23 12:15:36;;;;;;;5.18;1.70;;;19.20;99.90;;;;;;5026718;28;20034;-75
2023/09/23 12:18:02;;;;;;;4.10;1.38;;;19.30;99.90;;;;;;5021010;28;20482;-71
2023/09/23 12:20:28;;;;;;;6.00;2.28;;;19.30;99.90;;;;;;5020139;28;20056;-71
2023/09/23 12:22:57;;;;;;;5.43;1.60;;;19.40;99.90;;;;;;5021959;28;20374;-72
2023/09/23 12:25:22;;;;;;;4.72;1.45;;;19.40;99.90;;;;;;5021487;28;20034;-75
2023/09/23 12:27:48;;;;;;;5.10;1.40;;;19.40;99.90;;;;;;5023276;28;20060;-76
2023/09/23 12:30:17;;;;;;;2.45;1.40;;;19.40;99.90;;;;;;5020573;28;20401;-72
2023/09/23 12:32:43;;;;;;;4.82;1.95;;;19.50;99.90;;;;;;5026522;28;20038;-75
2023/09/23 12:35:11;;;;;;;3.05;1.10;;;19.50;99.90;;;;;;5024751;28;20039;-76
2023/09/23 12:37:37;;;;;;;4.28;1.55;;;19.60;99.90;;;;;;5022156;28;20104;-73
2023/09/23 12:40:07;;;;;;;4.00;2.05;;;19.60;99.90;;;;;;5023622;28;20117;-75
2023/09/23 12:42:33;;;;;;;5.47;1.30;;;19.50;99.90;;;;;;5020839;28;20099;-72